This is the latest recevied weather packets stored in our database for station/object LRCK. If no packets are shown the sender has not sent any weather packets the latest 10 day(s).
| Time | Temp. | Humidity | Pressure | Rain* | Wind** | Luminosity | Snow |
|---|---|---|---|---|---|---|---|
| 1777621697 | 11.11° C | 50% | 1023 hPa | - | - | - | - |
| 1777620797 | 11.11° C | 50% | 1023 hPa | - | - | - | - |
| 1777619897 | 10° C | 54% | 1023 hPa | - | - | - | - |
| 1777618997 | 10° C | 54% | 1023 hPa | - | - | - | - |
| 1777618101 | 10° C | 62% | 1023 hPa | - | - | - | - |
| 1777617197 | 10° C | 62% | 1023 hPa | - | - | - | - |
| 1777616299 | 8.89° C | 62% | 1023 hPa | - | - | - | - |
| 1777615397 | 8.89° C | 62% | 1023 hPa | - | - | - | - |
| 1777614498 | 7.78° C | 62% | 1023 hPa | - | - | - | - |
| 1777613597 | 7.78° C | 62% | 1023 hPa | - | - | - | - |
| 1777612698 | 5° C | 76% | 1023 hPa | - | - | - | - |
| 1777611797 | 5° C | 76% | 1023 hPa | - | - | - | - |
| 1777610897 | 5° C | 76% | 1023 hPa | - | - | - | - |
| 1777609997 | 5° C | 76% | 1023 hPa | - | - | - | - |
| 1777609097 | 3.89° C | 87% | 1023 hPa | - | - | - | - |
| 1777608197 | 3.89° C | 87% | 1023 hPa | - | - | - | - |
| 1777607297 | 3.89° C | 93% | 1022 hPa | - | - | - | - |
| 1777606397 | 3.89° C | 93% | 1022 hPa | - | - | - | - |
| 1777605497 | 3.89° C | 93% | 1022 hPa | - | - | - | - |
| 1777604597 | 3.89° C | 93% | 1022 hPa | - | - | - | - |
| 1777603698 | 5° C | 87% | 1022 hPa | - | - | - | - |
| 1777602797 | 5° C | 87% | 1022 hPa | - | - | - | - |
| 1777601897 | 5° C | 81% | 1023 hPa | - | - | - | - |
| 1777600997 | 5° C | 81% | 1023 hPa | - | - | - | - |
| 1777600098 | 6.11° C | 76% | 1022 hPa | - | - | - | - |
* Rain since midnight (hover to see other rain measurements)
** Current wind speed in m/s (hover to see current wind gust speed)